Time;durP1;ratioP1;P1;durP2;ratioP2;P2;SDS_P1;SDS_P2;PMS_P1;PMS_P2;Temp;Humidity;BMP_temperature;BMP_pressure;BME280_temperature;BME280_humidity;BME280_pressure;Samples;Min_cycle;Max_cycle;Signal;HPM_P1;HPM_P2
2022/06/25 00:01:35;;;;;;;4.87;4.37;;;18.90;99.90;;;;;;4971104;28;20188;-71
2022/06/25 00:04:00;;;;;;;8.30;5.27;;;18.90;99.90;;;;;;4966279;28;20188;-71
2022/06/25 00:06:26;;;;;;;5.13;4.60;;;18.80;99.90;;;;;;4967104;28;20172;-71
2022/06/25 00:08:52;;;;;;;8.93;4.77;;;18.90;99.90;;;;;;4970083;28;20184;-71
2022/06/25 00:14:11;;;;;;;5.57;4.20;;;18.80;99.90;;;;;;4970414;28;20177;-72
2022/06/25 00:16:37;;;;;;;5.63;4.80;;;18.80;99.90;;;;;;4971090;28;20694;-71
2022/06/25 00:19:03;;;;;;;7.67;4.70;;;18.80;99.90;;;;;;4970878;28;20172;-71
2022/06/25 00:21:29;;;;;;;4.50;4.10;;;18.80;99.90;;;;;;4966333;28;20208;-71
2022/06/25 00:23:55;;;;;;;4.60;4.20;;;18.80;99.90;;;;;;4966537;28;20184;-71
2022/06/25 00:26:21;;;;;;;5.13;4.63;;;18.80;99.90;;;;;;4969771;28;20196;-71
2022/06/25 00:28:47;;;;;;;4.93;4.17;;;18.90;99.90;;;;;;4961331;28;20252;-71
2022/06/25 00:31:13;;;;;;;5.30;4.40;;;18.80;99.90;;;;;;4967205;28;20212;-71
2022/06/25 00:33:39;;;;;;;5.90;4.50;;;18.90;99.90;;;;;;4967733;28;20185;-71
2022/06/25 00:36:05;;;;;;;5.10;4.60;;;18.90;99.90;;;;;;4970903;28;20665;-71
2022/06/25 00:38:31;;;;;;;5.17;4.67;;;18.90;99.90;;;;;;4964695;28;20275;-71
2022/06/25 00:40:56;;;;;;;6.67;4.90;;;18.90;99.90;;;;;;4968442;28;20295;-71
2022/06/25 00:43:22;;;;;;;9.67;5.03;;;18.90;99.90;;;;;;4967122;28;20184;-71
2022/06/25 00:45:48;;;;;;;6.50;5.70;;;18.90;99.90;;;;;;4969149;28;20669;-72
2022/06/25 00:48:14;;;;;;;6.17;4.93;;;18.90;99.90;;;;;;4969698;28;20348;-71
2022/06/25 00:50:40;;;;;;;8.97;5.30;;;19.00;99.90;;;;;;4968131;28;20621;-71
2022/06/25 00:53:09;;;;;;;8.30;5.33;;;18.90;99.90;;;;;;4968822;28;20208;-71
2022/06/25 00:55:37;;;;;;;7.73;5.23;;;18.90;99.90;;;;;;4970333;28;20187;-71
2022/06/25 00:58:06;;;;;;;6.03;4.80;;;18.90;99.90;;;;;;4948627;28;20191;-71
2022/06/25 01:00:32;;;;;;;5.53;5.03;;;18.90;99.90;;;;;;4958737;28;20625;-71
2022/06/25 01:02:57;;;;;;;6.87;4.60;;;18.90;99.90;;;;;;4972277;28;20193;-71
2022/06/25 01:05:23;;;;;;;7.00;4.20;;;18.90;99.90;;;;;;4972310;28;20254;-71
2022/06/25 01:07:50;;;;;;;6.37;5.10;;;18.90;99.90;;;;;;4960241;28;20239;-71
2022/06/25 01:10:17;;;;;;;5.23;4.83;;;18.90;99.90;;;;;;4970258;28;20212;-71
2022/06/25 01:12:43;;;;;;;7.60;5.10;;;18.90;99.90;;;;;;4973338;28;20660;-71
2022/06/25 01:15:17;;;;;;;5.30;4.90;;;18.80;99.90;;;;;;4973254;28;20232;-71
2022/06/25 01:17:46;;;;;;;4.77;4.30;;;18.90;99.90;;;;;;4972993;28;20664;-71
2022/06/25 01:20:14;;;;;;;6.83;5.53;;;18.90;99.90;;;;;;4959705;28;20246;-71
2022/06/25 01:22:39;;;;;;;5.80;5.20;;;18.80;99.90;;;;;;4973054;28;20679;-72
2022/06/25 01:25:10;;;;;;;5.90;5.00;;;18.80;99.90;;;;;;4968556;28;20197;-71
2022/06/25 01:27:36;;;;;;;5.17;4.60;;;18.80;99.90;;;;;;4971226;28;20189;-71
2022/06/25 01:30:03;;;;;;;5.87;4.63;;;18.80;99.90;;;;;;4970679;28;20226;-71
2022/06/25 01:32:30;;;;;;;6.93;4.87;;;18.80;99.90;;;;;;4946606;28;20192;-71
2022/06/25 01:34:55;;;;;;;4.90;4.40;;;18.80;99.90;;;;;;4972574;28;20239;-71
2022/06/25 01:37:21;;;;;;;4.70;4.30;;;18.80;99.90;;;;;;4972612;28;20185;-71
2022/06/25 01:39:54;;;;;;;4.50;4.10;;;18.80;99.90;;;;;;4955555;28;20217;-71
2022/06/25 01:45:06;;;;;;;5.77;4.47;;;18.70;99.90;;;;;;4971748;28;20188;-71
2022/06/25 01:47:32;;;;;;;5.43;4.30;;;18.70;99.90;;;;;;4972271;28;20204;-71
2022/06/25 01:49:57;;;;;;;10.17;4.90;;;18.70;99.90;;;;;;4975317;28;20675;-71
2022/06/25 01:52:23;;;;;;;5.20;4.70;;;18.70;99.90;;;;;;4948718;28;20184;-71
2022/06/25 01:54:49;;;;;;;6.60;4.83;;;18.70;99.90;;;;;;4968583;28;20196;-71
2022/06/25 01:57:15;;;;;;;6.23;4.70;;;18.70;99.90;;;;;;4952690;28;20185;-71
2022/06/25 01:59:41;;;;;;;7.07;5.03;;;18.70;99.90;;;;;;4969318;28;20209;-71
2022/06/25 02:02:07;;;;;;;5.30;4.80;;;18.70;99.90;;;;;;4960547;28;20181;-71
2022/06/25 02:04:33;;;;;;;5.90;5.00;;;18.70;99.90;;;;;;4972395;28;20219;-71
2022/06/25 02:07:00;;;;;;;5.80;5.27;;;18.70;99.90;;;;;;4968149;28;20191;-71
2022/06/25 02:09:25;;;;;;;6.60;5.67;;;18.70;99.90;;;;;;4953865;28;20287;-71
2022/06/25 02:11:51;;;;;;;6.07;5.57;;;18.70;99.90;;;;;;4970177;28;20951;-72
2022/06/25 02:14:17;;;;;;;6.13;5.53;;;18.70;99.90;;;;;;4975527;28;20187;-71
2022/06/25 02:16:42;;;;;;;7.00;6.17;;;18.60;99.90;;;;;;4973009;28;20177;-71
2022/06/25 02:19:08;;;;;;;6.77;5.80;;;18.60;99.90;;;;;;4969282;28;20185;-71
2022/06/25 02:21:35;;;;;;;9.03;5.90;;;18.60;99.90;;;;;;4970126;28;20596;-71
2022/06/25 02:24:01;;;;;;;7.90;5.80;;;18.60;99.90;;;;;;4957658;28;20725;-71
2022/06/25 02:26:27;;;;;;;5.50;5.00;;;18.60;99.90;;;;;;4957856;28;20188;-71
2022/06/25 02:28:53;;;;;;;6.67;5.60;;;18.70;99.90;;;;;;4973286;28;20326;-71
2022/06/25 02:31:19;;;;;;;5.73;5.23;;;18.60;99.90;;;;;;4970540;28;20211;-71
2022/06/25 02:33:45;;;;;;;6.63;5.73;;;18.60;99.90;;;;;;4968912;28;20180;-71
2022/06/25 02:36:11;;;;;;;5.13;4.73;;;18.60;99.90;;;;;;4949625;28;20181;-71
2022/06/25 02:38:37;;;;;;;6.40;4.77;;;18.60;99.90;;;;;;4965441;28;20516;-71
2022/06/25 02:41:03;;;;;;;5.23;4.73;;;18.60;99.90;;;;;;4968043;28;20212;-71
2022/06/25 02:43:35;;;;;;;5.70;5.10;;;18.60;99.90;;;;;;4970138;28;20196;-71
2022/06/25 02:46:27;;;;;;;4.70;4.30;;;18.60;99.90;;;;;;4963310;28;20196;-71
2022/06/25 02:48:55;;;;;;;6.80;5.33;;;18.60;99.90;;;;;;4963738;28;20188;-71
2022/06/25 02:51:21;;;;;;;4.77;4.37;;;18.60;99.90;;;;;;4964570;28;20255;-71
2022/06/25 02:53:48;;;;;;;5.23;4.70;;;18.50;99.90;;;;;;4971240;28;20960;-71
2022/06/25 02:59:03;;;;;;;5.30;4.80;;;18.50;99.90;;;;;;4957647;28;20207;-71
2022/06/25 03:01:42;;;;;;;8.07;4.97;;;18.50;99.90;;;;;;4968387;28;20629;-71
2022/06/25 03:04:09;;;;;;;4.63;4.23;;;18.50;99.90;;;;;;4968509;28;20185;-71
2022/06/25 03:06:36;;;;;;;7.93;5.17;;;18.50;99.90;;;;;;4951603;28;20259;-71
2022/06/25 03:09:02;;;;;;;5.40;4.33;;;18.50;99.90;;;;;;4966964;28;20185;-71
2022/06/25 03:11:28;;;;;;;5.53;4.60;;;18.50;99.90;;;;;;4970407;28;20579;-71
2022/06/25 03:13:54;;;;;;;6.50;5.00;;;18.50;99.90;;;;;;4969900;28;20184;-71
2022/06/25 03:16:22;;;;;;;5.90;5.27;;;18.40;99.90;;;;;;4968724;28;20219;-71
2022/06/25 03:18:50;;;;;;;5.13;4.60;;;18.50;99.90;;;;;;4952824;28;20185;-71
2022/06/25 03:21:35;;;;;;;6.07;4.80;;;18.40;99.90;;;;;;4967424;28;20275;-71
2022/06/25 03:24:05;;;;;;;4.87;4.43;;;18.40;99.90;;;;;;4936244;28;20572;-71
2022/06/25 03:26:32;;;;;;;7.60;4.60;;;18.40;99.90;;;;;;4970430;28;20716;-71
2022/06/25 03:28:59;;;;;;;5.20;4.40;;;18.30;99.90;;;;;;4967868;28;20283;-71
2022/06/25 03:31:26;;;;;;;7.50;5.30;;;18.30;99.90;;;;;;4969531;28;20212;-71
2022/06/25 03:33:53;;;;;;;4.87;4.37;;;18.30;99.90;;;;;;4953028;28;20184;-71
2022/06/25 03:36:33;;;;;;;6.27;5.00;;;18.30;99.90;;;;;;4964325;28;20195;-71
2022/06/25 03:38:59;;;;;;;5.43;4.70;;;18.30;99.90;;;;;;4968056;28;20212;-71
2022/06/25 03:41:32;;;;;;;6.97;4.77;;;18.30;99.90;;;;;;4967580;28;20216;-71
2022/06/25 03:44:27;;;;;;;6.83;4.40;;;18.30;99.90;;;;;;4956613;28;20219;-71
2022/06/25 03:47:04;;;;;;;4.97;4.10;;;18.30;99.90;;;;;;4966398;28;20195;-71
2022/06/25 03:49:31;;;;;;;6.87;4.60;;;18.30;99.90;;;;;;4968670;28;22080;-71
2022/06/25 03:52:00;;;;;;;5.60;4.40;;;18.30;99.90;;;;;;4966680;28;20226;-71
2022/06/25 03:54:27;;;;;;;6.43;4.43;;;18.30;99.90;;;;;;4973365;28;20184;-71
2022/06/25 03:56:52;;;;;;;4.40;4.00;;;18.30;99.90;;;;;;4947252;28;20231;-71
2022/06/25 03:59:22;;;;;;;5.23;4.30;;;18.40;99.90;;;;;;4951964;28;20239;-71
2022/06/25 04:01:53;;;;;;;4.33;3.87;;;18.40;99.90;;;;;;4955771;28;20215;-71
2022/06/25 04:04:19;;;;;;;4.93;4.07;;;18.40;99.90;;;;;;4970188;28;20186;-71
2022/06/25 04:06:45;;;;;;;5.97;4.30;;;18.40;99.90;;;;;;4953439;28;22134;-71
2022/06/25 04:09:11;;;;;;;4.43;4.03;;;18.50;99.90;;;;;;4947806;28;20226;-71
2022/06/25 04:11:37;;;;;;;4.33;3.93;;;18.50;99.90;;;;;;4972692;28;20204;-72
2022/06/25 04:14:03;;;;;;;6.07;4.27;;;18.50;99.90;;;;;;4968930;28;20579;-71
2022/06/25 04:16:30;;;;;;;6.67;4.00;;;18.40;99.90;;;;;;4953421;28;20254;-71
2022/06/25 04:19:03;;;;;;;5.33;4.13;;;18.40;99.90;;;;;;4967224;28;20820;-71
2022/06/25 04:21:32;;;;;;;4.33;3.93;;;18.50;99.90;;;;;;4966235;28;20836;-71
2022/06/25 04:23:58;;;;;;;5.67;4.60;;;18.50;99.90;;;;;;4954263;28;20222;-71
2022/06/25 04:26:27;;;;;;;4.87;3.80;;;18.50;99.90;;;;;;4950647;28;20224;-71
2022/06/25 04:29:05;;;;;;;6.00;3.97;;;18.50;99.90;;;;;;4953047;28;20243;-71
2022/06/25 04:31:39;;;;;;;4.33;4.00;;;18.60;99.90;;;;;;4964308;28;20247;-71
2022/06/25 04:34:11;;;;;;;7.20;4.20;;;18.60;99.90;;;;;;4940002;28;20199;-71
2022/06/25 04:36:38;;;;;;;4.77;4.33;;;18.60;99.90;;;;;;4981574;28;20656;-71
2022/06/25 04:39:25;;;;;;;6.53;3.70;;;18.70;99.90;;;;;;4968454;28;20239;-71
2022/06/25 04:41:51;;;;;;;4.77;4.30;;;18.80;99.90;;;;;;4955360;28;20264;-71
2022/06/25 04:44:20;;;;;;;5.90;4.53;;;18.80;99.90;;;;;;4970835;28;20200;-71
2022/06/25 04:46:46;;;;;;;4.30;3.90;;;18.70;99.90;;;;;;4974118;28;20185;-71
2022/06/25 04:49:15;;;;;;;4.40;3.67;;;18.80;99.90;;;;;;4966976;28;20191;-71
2022/06/25 04:51:43;;;;;;;5.70;4.10;;;18.90;99.90;;;;;;4970718;28;20224;-72
2022/06/25 04:54:09;;;;;;;4.03;3.67;;;18.90;99.90;;;;;;4967213;28;20241;-71
2022/06/25 04:56:41;;;;;;;4.37;3.90;;;19.00;99.90;;;;;;4975312;28;20180;-71
2022/06/25 04:59:06;;;;;;;6.80;4.23;;;19.00;99.90;;;;;;4970487;28;20173;-71
2022/06/25 05:01:52;;;;;;;4.33;3.90;;;;;;;;;;4956213;28;20664;-71
2022/06/25 05:04:44;;;;;;;4.07;3.67;;;;;;;;;;4955514;28;20200;-71
2022/06/25 05:07:10;;;;;;;5.47;3.73;;;;;;;;;;4958492;28;20173;-71
2022/06/25 05:09:36;;;;;;;4.17;3.77;;;;;;;;;;4966365;28;20212;-71
2022/06/25 05:12:03;;;;;;;4.40;3.97;;;;;;;;;;4974309;28;20212;-71
2022/06/25 05:14:33;;;;;;;5.63;3.90;;;;;;;;;;4972217;28;20645;-71
2022/06/25 05:17:00;;;;;;;4.67;4.10;;;;;;;;;;4965089;28;20182;-71
2022/06/25 05:19:26;;;;;;;4.33;3.63;;;;;;;;;;4973827;28;20252;-72
2022/06/25 05:21:52;;;;;;;4.53;3.53;;;;;;;;;;4971934;28;20723;-71
2022/06/25 05:24:18;;;;;;;6.37;3.77;;;;;;;;;;4969842;28;20263;-71
2022/06/25 05:26:45;;;;;;;5.77;3.50;;;;;;;;;;4973832;28;20645;-71
2022/06/25 05:29:11;;;;;;;8.00;3.50;;;;;;;;;;4959568;28;20263;-71
2022/06/25 05:31:37;;;;;;;6.50;3.70;;;;;;;;;;4972408;28;20220;-71
2022/06/25 05:34:03;;;;;;;3.50;3.30;;;;;;;;;;4975922;28;20224;-71
2022/06/25 05:36:29;;;;;;;6.17;3.43;;;;;;;;;;4970626;28;20648;-71
2022/06/25 05:38:55;;;;;;;3.63;3.33;;;;;;;;;;4963373;28;20189;-71
2022/06/25 05:41:22;;;;;;;3.93;3.33;;;;;;;;;;4955064;28;20635;-71
2022/06/25 05:43:48;;;;;;;3.63;3.33;;;;;;;;;;4972384;28;20604;-71
2022/06/25 05:46:14;;;;;;;3.70;3.00;;;;;;;;;;4971928;28;20216;-71
2022/06/25 05:48:40;;;;;;;5.23;3.03;;;;;;;;;;4970806;28;20788;-71
2022/06/25 05:51:06;;;;;;;6.00;2.97;;;;;;;;;;4968994;28;20216;-71
2022/06/25 05:53:32;;;;;;;3.53;2.63;;;;;;;;;;4955600;28;20186;-71
2022/06/25 05:55:59;;;;;;;3.87;2.83;;;;;;;;;;4969754;28;20188;-71
2022/06/25 05:58:25;;;;;;;5.60;2.77;;;;;;;;;;4970969;28;20184;-71
2022/06/25 06:00:51;;;;;;;4.33;3.20;;;;;;;;;;4970186;28;20220;-71
2022/06/25 06:03:17;;;;;;;4.20;3.10;;;;;;;;;;4968496;28;20188;-71
2022/06/25 06:05:43;;;;;;;5.73;3.20;;;;;;;;;;4958081;28;20242;-71
2022/06/25 06:08:09;;;;;;;3.40;3.00;;;;;;;;;;4971915;28;20679;-71
2022/06/25 06:10:35;;;;;;;5.20;3.10;;;;;;;;;;4970039;28;20216;-71
2022/06/25 06:13:03;;;;;;;6.03;2.83;;;;;;;;;;4965253;28;20205;-71
2022/06/25 06:15:29;;;;;;;4.80;3.07;;;;;;;;;;4969265;28;20180;-71
2022/06/25 06:17:55;;;;;;;4.00;3.00;;;;;;;;;;4972653;28;20185;-71
2022/06/25 06:20:21;;;;;;;4.97;3.00;;;;;;;;;;4966748;28;20217;-72
2022/06/25 06:22:47;;;;;;;3.10;2.80;;;;;;;;;;4970771;28;20200;-71
2022/06/25 06:25:13;;;;;;;3.63;2.73;;;;;;;;;;4969556;28;20544;-71
2022/06/25 06:27:40;;;;;;;4.37;2.70;;;;;;;;;;4971636;28;20180;-72
2022/06/25 06:30:08;;;;;;;4.60;2.80;;;;;;;;;;4966732;28;20213;-71
2022/06/25 06:32:34;;;;;;;4.37;2.50;;;;;;;;;;4965882;28;20959;-72
2022/06/25 06:35:01;;;;;;;3.40;2.97;;;;;;;;;;4970682;28;20287;-71
2022/06/25 06:37:27;;;;;;;5.80;2.97;;;;;;;;;;4969245;28;20243;-71
2022/06/25 06:39:53;;;;;;;4.57;2.70;;;;;;;;;;4970497;28;20251;-71
2022/06/25 06:42:20;;;;;;;6.87;3.30;;;;;;;;;;4952548;28;20180;-71
2022/06/25 06:44:46;;;;;;;4.03;3.10;;;;;;;;;;4971418;28;20177;-71
2022/06/25 06:47:12;;;;;;;3.43;2.90;;;;;;;;;;4980437;28;20176;-71
2022/06/25 06:49:38;;;;;;;3.90;2.80;;;;;;;;;;4970024;28;20200;-70
2022/06/25 06:52:05;;;;;;;5.50;2.70;;;;;;;;;;4949205;28;20213;-71
2022/06/25 06:54:31;;;;;;;5.50;2.40;;;;;;;;;;4970901;28;20184;-71
2022/06/25 06:56:57;;;;;;;3.03;2.40;;;;;;;;;;4967896;28;20660;-71
2022/06/25 06:59:23;;;;;;;5.47;2.60;;;;;;;;;;4966938;28;20196;-71
2022/06/25 07:01:50;;;;;;;3.67;2.60;;;;;;;;;;4962775;28;20568;-71
2022/06/25 07:04:16;;;;;;;3.70;2.70;;;;;;;;;;4970675;28;20181;-73
2022/06/25 07:06:42;;;;;;;2.43;2.20;;;;;;;;;;4965175;28;20216;-73
2022/06/25 07:09:08;;;;;;;2.97;2.20;;;;;;;;;;4962268;28;21265;-72
2022/06/25 07:11:36;;;;;;;2.90;2.60;;;;;;;;;;4966104;28;20259;-72
2022/06/25 07:14:06;;;;;;;2.87;2.43;;;;;;;;;;4968196;28;20827;-73
2022/06/25 07:16:34;;;;;;;5.10;2.30;;;;;;;;;;4968340;28;20192;-73
2022/06/25 07:19:01;;;;;;;3.53;2.43;;;;;;;;;;4967254;28;20183;-73
2022/06/25 07:21:27;;;;;;;2.67;2.47;;;;;;;;;;4963340;28;20295;-73
2022/06/25 07:23:53;;;;;;;2.57;2.37;;;;;;;;;;4940418;28;20191;-73
2022/06/25 07:26:20;;;;;;;3.70;2.73;;;;;;;;;;4968499;28;20216;-73
2022/06/25 07:28:47;;;;;;;3.07;2.40;;;;;;;;;;4950895;28;20576;-73
2022/06/25 07:31:14;;;;;;;3.77;2.47;;;;;;;;;;4965564;28;20216;-73
2022/06/25 07:33:40;;;;;;;3.00;2.50;;;;;;;;;;4966016;28;20660;-73
2022/06/25 07:36:07;;;;;;;3.90;2.50;;;;;;;;;;4966780;28;20204;-73
2022/06/25 07:38:34;;;;;;;3.83;2.50;;;;;;;;;;4967065;28;20187;-73
2022/06/25 07:41:00;;;;;;;4.33;2.33;;;;;;;;;;4967630;28;20703;-73
2022/06/25 07:43:27;;;;;;;3.43;2.53;;;;;;;;;;4941365;28;20660;-72
2022/06/25 07:45:54;;;;;;;5.47;2.70;;;;;;;;;;4966508;28;20184;-72
2022/06/25 07:48:20;;;;;;;3.30;2.60;;;;;;;;;;4971065;28;20188;-72
2022/06/25 07:53:31;;;;;;;3.90;2.30;;;;;;;;;;4964504;28;20283;-73
2022/06/25 07:55:57;;;;;;;3.50;2.70;;;;;;;;;;4969795;28;20177;-76
2022/06/25 07:58:24;;;;;;;3.80;2.63;;;;;;;;;;4966129;28;20267;-73
2022/06/25 08:00:50;;;;;;;2.83;2.40;;;;;;;;;;4968142;28;20202;-73
2022/06/25 08:03:17;;;;;;;3.60;2.40;;;;;;;;;;4966569;28;20213;-73
2022/06/25 08:05:43;;;;;;;3.40;3.10;;;;;;;;;;4970116;28;20691;-73
2022/06/25 08:08:09;;;;;;;5.33;2.70;;;;;;;;;;4972009;28;20540;-73
2022/06/25 08:10:35;;;;;;;3.77;3.20;;;;;;;;;;4969165;28;20216;-73
2022/06/25 08:13:02;;;;;;;4.20;3.27;;;;;;;;;;4973712;28;20660;-73
2022/06/25 08:15:28;;;;;;;3.40;3.03;;;;;;;;;;4972403;28;20177;-73
2022/06/25 08:17:56;;;;;;;2.97;2.70;;;;;;;;;;4971116;28;20192;-73
2022/06/25 08:20:22;;;;;;;4.73;2.90;;;;;;;;;;4963628;28;20200;-73
2022/06/25 08:22:49;;;;;;;4.13;2.97;;;;;;;;;;4972977;28;20565;-73
2022/06/25 08:25:16;;;;;;;2.87;2.50;;;;;;;;;;4954357;28;20555;-73
2022/06/25 08:27:52;;;;;;;5.27;3.00;;;;;;;;;;4971201;28;20189;-73
2022/06/25 08:30:19;;;;;;;6.67;3.00;;;;;;;;;;4969465;28;20625;-73
2022/06/25 08:32:45;;;;;;;5.90;2.80;;;;;;;;;;4971410;28;20724;-74
2022/06/25 08:35:12;;;;;;;2.97;2.73;;;;;;;;;;4971982;28;20319;-72
2022/06/25 08:37:38;;;;;;;4.37;2.63;;;;;;;;;;4974583;28;20188;-73
2022/06/25 08:40:07;;;;;;;3.90;2.60;;;;;;;;;;4974241;28;20196;-74
2022/06/25 08:42:34;;;;;;;3.60;2.40;;;;;;;;;;4971528;28;20264;-73
2022/06/25 08:45:01;;;;;;;5.57;2.90;;;;;;;;;;4971452;28;20188;-73
2022/06/25 08:47:27;;;;;;;4.67;2.70;;;;;;;;;;4974528;28;20181;-72
2022/06/25 08:49:53;;;;;;;6.97;3.00;;;;;;;;;;4972599;28;20284;-71
2022/06/25 08:52:19;;;;;;;3.30;2.60;;;;;;;;;;4972036;28;20921;-72
2022/06/25 08:54:46;;;;;;;2.83;2.60;;;;;;;;;;4972639;28;20177;-72
2022/06/25 08:57:12;;;;;;;3.50;2.70;;;;;;;;;;4973221;28;20196;-72
2022/06/25 08:59:38;;;;;;;2.83;2.63;;;;;;;;;;4970788;28;20240;-71
2022/06/25 09:02:05;;;;;;;3.00;2.80;;;;;;;;;;4972221;28;20182;-73
2022/06/25 09:04:31;;;;;;;6.13;2.80;;;;;;;;;;4974363;28;20340;-72
2022/06/25 09:07:11;;;;;;;3.10;2.80;;;;;;;;;;4971685;28;20207;-71
2022/06/25 09:09:37;;;;;;;2.73;2.53;;;;;;;;;;4951245;28;20307;-74
2022/06/25 09:12:08;;;;;;;3.30;2.60;;;;;;;;;;4968656;28;20595;-73
2022/06/25 09:14:35;;;;;;;4.50;2.80;;;;;;;;;;4966043;28;20185;-74
2022/06/25 09:17:09;;;;;;;2.67;2.30;;;;;;;;;;4973469;28;20197;-74
2022/06/25 09:19:36;;;;;;;4.00;2.50;;;;;;;;;;4954391;28;21818;-73
2022/06/25 09:22:06;;;;;;;4.87;2.90;;;;;;;;;;4959753;28;20192;-73
2022/06/25 09:24:47;;;;;;;4.27;2.60;;;;;;;;;;4973289;28;20189;-76
2022/06/25 09:27:18;;;;;;;2.77;2.53;;;;;;;;;;4970489;28;20188;-73
2022/06/25 09:29:48;;;;;;;3.70;2.67;;;;;;;;;;4970396;28;20216;-74
2022/06/25 09:32:15;;;;;;;4.17;2.53;;;;;;;;;;4948943;28;20265;-73
2022/06/25 09:34:42;;;;;;;3.50;2.47;;;;;;;;;;4969926;28;20653;-74
2022/06/25 09:37:18;;;;;;;2.63;2.43;;;;;;;;;;4967781;28;20645;-74
2022/06/25 09:39:45;;;;;;;3.03;2.83;;;;;;;;;;4968053;28;20211;-73
2022/06/25 09:42:26;;;;;;;2.60;2.40;;;;;;;;;;4970125;28;20653;-74
2022/06/25 09:45:18;;;;;;;3.53;2.20;;;;;;;;;;4972814;28;20181;-75
2022/06/25 09:47:45;;;;;;;2.80;2.37;;;;;;;;;;4967796;28;20208;-74
2022/06/25 09:50:16;;;;;;;4.40;2.50;;;;;;;;;;4969309;28;20212;-74
2022/06/25 09:52:53;;;;;;;2.47;2.23;;;;;;;;;;4952507;28;20197;-75
2022/06/25 09:55:20;;;;;;;2.73;2.20;;;;;;;;;;4971723;28;20273;-75
2022/06/25 09:57:47;;;;;;;3.80;2.47;;;;;;;;;;4972015;28;20237;-74
2022/06/25 10:00:17;;;;;;;3.30;1.90;;;;;;;;;;4959984;28;20293;-74
2022/06/25 10:02:45;;;;;;;2.10;1.90;;;;;;;;;;4969075;28;20681;-74
2022/06/25 10:05:11;;;;;;;4.20;2.27;;;;;;;;;;4954965;28;20192;-74
2022/06/25 10:10:23;;;;;;;4.23;2.17;;;;;;;;;;4970431;28;20245;-75
2022/06/25 10:12:50;;;;;;;3.53;2.03;;;;;;;;;;4956156;28;20176;-74
2022/06/25 10:15:18;;;;;;;3.53;2.13;;;;;;;;;;4967617;28;20308;-74
2022/06/25 10:17:45;;;;;;;4.30;1.97;;;;;;;;;;4970365;28;20183;-74
2022/06/25 10:20:12;;;;;;;3.77;2.10;;;;;;;;;;4969946;28;20267;-75
2022/06/25 10:22:38;;;;;;;2.27;1.80;;;;;;;;;;4967728;28;20195;-79
2022/06/25 10:25:05;;;;;;;2.10;1.80;;;;;;;;;;4969616;28;20184;-74
2022/06/25 10:27:38;;;;;;;2.93;1.80;;;;;;;;;;4968304;28;20192;-74
2022/06/25 10:30:04;;;;;;;4.43;1.80;;;;;;;;;;4966444;28;20208;-73
2022/06/25 10:32:34;;;;;;;2.60;1.80;;;;;;;;;;4965664;28;20572;-74
2022/06/25 10:35:04;;;;;;;3.30;1.63;;;;;;;;;;4969899;28;20214;-76
2022/06/25 10:37:50;;;;;;;4.83;1.83;;;;;;;;;;4968530;28;20193;-74
2022/06/25 10:40:18;;;;;;;9.47;1.87;;;;;;;;;;4967593;28;20250;-74
2022/06/25 10:42:59;;;;;;;2.63;1.93;;;;;;;;;;4966762;28;20267;-74
2022/06/25 10:45:26;;;;;;;1.90;1.70;;;;;;;;;;4968487;28;20177;-75
2022/06/25 10:47:52;;;;;;;1.90;1.63;;;;;;;;;;4970069;28;20560;-75
2022/06/25 10:50:21;;;;;;;2.10;1.50;;;;;;;;;;4967906;28;20325;-74
2022/06/25 10:55:29;;;;;;;3.00;1.70;;;;;;;;;;4974922;28;20189;-74
2022/06/25 10:58:13;;;;;;;2.53;1.70;;;;;;;;;;4966012;28;20186;-74
2022/06/25 11:00:52;;;;;;;1.83;1.73;;;;;;;;;;4974867;28;20654;-74
2022/06/25 11:03:38;;;;;;;3.20;1.40;;;;;;;;;;4968567;28;20196;-74
2022/06/25 11:06:23;;;;;;;2.10;1.53;;;;;;;;;;4973001;28;20192;-74
2022/06/25 11:08:50;;;;;;;3.03;1.40;;;;;;;;;;4967613;28;20610;-75
2022/06/25 11:11:23;;;;;;;2.50;1.40;;;;;;;;;;4967475;28;20220;-75
2022/06/25 11:13:49;;;;;;;1.30;1.20;;;;;;;;;;4971129;28;20203;-74
2022/06/25 11:16:16;;;;;;;3.67;1.33;;;;;;;;;;4970452;28;20188;-74
2022/06/25 11:18:46;;;;;;;1.60;1.43;;;;;;;;;;4970319;28;20660;-75
2022/06/25 11:21:24;;;;;;;2.93;1.60;;;;;;;;;;4955669;28;20283;-74
2022/06/25 11:23:50;;;;;;;2.27;1.70;;;;;;;;;;4949948;28;20227;-75
2022/06/25 11:29:03;;;;;;;2.97;1.50;;;;;;;;;;4967406;28;20217;-77
2022/06/25 11:31:33;;;;;;;2.30;1.37;;;;;;;;;;4969630;28;20242;-77
2022/06/25 11:34:02;;;;;;;3.53;1.60;;;;;;;;;;4957583;28;20212;-76
2022/06/25 11:36:28;;;;;;;1.60;1.50;;;;;;;;;;4969625;28;20701;-76
2022/06/25 11:38:55;;;;;;;1.43;1.30;;;;;;;;;;4953970;28;20299;-76
2022/06/25 11:41:27;;;;;;;1.93;1.60;;;;;;;;;;4974333;28;20219;-77
2022/06/25 11:43:53;;;;;;;3.90;1.70;;;;;;;;;;4956052;28;20200;-74
2022/06/25 11:46:20;;;;;;;1.97;1.50;;;;;;;;;;4977002;28;20615;-73
2022/06/25 11:48:57;;;;;;;1.60;1.30;;;;;;;;;;4968829;28;20217;-73
2022/06/25 11:51:24;;;;;;;3.03;1.30;;;;;;;;;;4968734;28;20215;-71
2022/06/25 11:53:53;;;;;;;1.73;1.40;;;;;;;;;;4969859;28;20184;-71
2022/06/25 11:56:20;;;;;;;1.80;1.40;;;;;;;;;;4957871;28;20600;-71
2022/06/25 11:58:46;;;;;;;1.63;1.20;;;;;;;;;;4968371;28;20301;-71
2022/06/25 12:01:13;;;;;;;2.40;1.30;;;;;;;;;;4969275;28;20229;-74
2022/06/25 12:03:39;;;;;;;1.93;1.23;;;;;;;;;;4964471;28;20240;-74
2022/06/25 12:06:06;;;;;;;2.07;1.47;;;;;;;;;;4968268;28;20193;-74
2022/06/25 12:08:32;;;;;;;1.30;1.20;;;;;;;;;;4949908;28;20192;-74
2022/06/25 12:11:00;;;;;;;1.70;1.30;;;;;;;;;;4966916;28;20218;-74
2022/06/25 12:13:27;;;;;;;1.47;1.20;;;;;;;;;;4970812;28;20549;-75
2022/06/25 12:16:00;;;;;;;1.00;1.00;;;;;;;;;;4976129;28;20270;-75
2022/06/25 12:18:39;;;;;;;2.03;1.20;;;;;;;;;;4950475;28;20185;-76
2022/06/25 12:21:06;;;;;;;2.43;1.30;;;;;;;;;;4977122;28;20207;-76
2022/06/25 12:23:51;;;;;;;1.50;1.27;;;;;;;;;;4950733;28;20668;-77
2022/06/25 12:26:24;;;;;;;2.27;1.03;;;;;;;;;;4962462;28;20202;-77
2022/06/25 12:28:50;;;;;;;2.70;1.20;;;;;;;;;;4943849;28;20681;-77
2022/06/25 12:31:18;;;;;;;1.10;1.10;;;;;;;;;;4963811;28;20207;-77
2022/06/25 12:33:51;;;;;;;1.93;1.23;;;;;;;;;;4965475;28;20950;-77
2022/06/25 12:36:18;;;;;;;1.20;1.10;;;;;;;;;;4964848;28;20225;-77
2022/06/25 12:38:44;;;;;;;1.17;1.07;;;;;;;;;;4945899;28;20202;-78
2022/06/25 12:41:11;;;;;;;1.20;1.10;;;;;;;;;;4942551;28;20669;-75
2022/06/25 12:43:44;;;;;;;1.77;1.10;;;;;;;;;;4960967;28;20186;-75
2022/06/25 12:46:11;;;;;;;1.27;1.10;;;;;;;;;;4965541;28;20187;-76
2022/06/25 12:48:37;;;;;;;1.60;1.00;;;;;;;;;;4962695;28;20219;-77
2022/06/25 12:51:11;;;;;;;1.47;1.10;;;;;;;;;;4964512;28;20247;-76
2022/06/25 12:53:38;;;;;;;0.93;0.80;;;;;;;;;;4962237;28;20199;-77
2022/06/25 12:56:05;;;;;;;1.97;0.80;;;;;;;;;;4969351;28;20199;-77
2022/06/25 12:58:38;;;;;;;0.80;0.80;;;;;;;;;;4963076;28;20220;-77
2022/06/25 13:01:20;;;;;;;1.20;0.90;;;;;;;;;;4915465;28;20201;-77
2022/06/25 13:03:47;;;;;;;1.37;0.90;;;;;;;;;;4963821;28;20684;-77
2022/06/25 13:06:14;;;;;;;2.03;1.13;;;;;;;;;;4966306;28;20182;-77
2022/06/25 13:08:40;;;;;;;1.87;0.93;;;;;;;;;;4946758;28;20193;-77
2022/06/25 13:11:07;;;;;;;1.60;1.10;;;;;;;;;;4964988;28;20215;-77
2022/06/25 13:13:33;;;;;;;1.73;0.90;;;;;;;;;;4965571;28;20965;-77
2022/06/25 13:16:00;;;;;;;0.90;0.80;;;;;;;;;;4970903;28;20187;-77
2022/06/25 13:18:26;;;;;;;1.70;1.20;;;;;;;;;;4973850;28;21672;-77
2022/06/25 13:20:53;;;;;;;1.13;1.00;;;;;;;;;;4967599;28;20231;-77
2022/06/25 13:23:19;;;;;;;1.45;1.00;;;;;;;;;;4967952;28;20196;-77
2022/06/25 13:25:45;;;;;;;2.45;1.00;;;;;;;;;;4973433;28;20671;-79
2022/06/25 13:28:11;;;;;;;1.52;1.00;;;;;;;;;;4952693;28;20221;-79
2022/06/25 13:30:41;;;;;;;1.27;1.10;;;;;;;;;;4968848;28;20250;-82
2022/06/25 13:33:07;;;;;;;1.27;1.05;;;;;;;;;;4967054;28;20785;-79
2022/06/25 13:35:33;;;;;;;1.73;0.90;;;;;;;;;;4972407;28;20188;-78
2022/06/25 13:37:59;;;;;;;1.33;1.10;;;;;;;;;;4971661;28;20542;-79
2022/06/25 13:40:26;;;;;;;2.22;0.95;;;;;;;;;;4968619;28;20227;-79
2022/06/25 13:42:53;;;;;;;1.13;0.98;;;;;;;;;;4967831;28;20189;-79
2022/06/25 13:45:19;;;;;;;1.15;0.90;;;;;;;;;;4971151;28;20560;-79
2022/06/25 13:47:45;;;;;;;0.90;0.90;;;;;;;;;;4968850;28;20263;-79
2022/06/25 13:50:11;;;;;;;1.52;1.10;;;;;;;;;;4967004;28;20212;-79
2022/06/25 13:52:38;;;;;;;2.97;1.05;;;;;;;;;;4971308;28;20320;-79
2022/06/25 13:55:04;;;;;;;1.08;1.00;;;;;;;;;;4972866;28;20289;-79
2022/06/25 13:57:30;;;;;;;1.20;1.00;;;;;;;;;;4969091;28;20212;-79
2022/06/25 13:59:56;;;;;;;1.20;1.02;;;;;;;;;;4969442;28;20205;-79
2022/06/25 14:02:23;;;;;;;1.55;1.08;;;;;;;;;;4949416;28;20286;-80
2022/06/25 14:04:49;;;;;;;8.02;1.00;;;;;;;;;;4966806;28;20193;-79
2022/06/25 14:07:15;;;;;;;0.85;0.85;;;;;;;;;;4973240;28;20188;-79
2022/06/25 14:09:42;;;;;;;1.60;1.00;;;;;;;;;;4975989;28;20214;-79
2022/06/25 14:12:08;;;;;;;2.10;1.65;;;;;;;;;;4956306;28;20216;-79
2022/06/25 14:14:34;;;;;;;2.70;1.10;;;;;;;;;;4982139;28;20208;-79
2022/06/25 14:17:01;;;;;;;1.27;1.10;;;;;;;;;;4974660;28;20631;-78
2022/06/25 14:19:27;;;;;;;1.08;1.00;;;;;;;;;;4970350;28;20262;-78
2022/06/25 14:21:54;;;;;;;1.33;1.00;;;;;;;;;;4968442;28;20267;-79
2022/06/25 14:27:05;;;;;;;1.10;1.00;;;;;;;;;;4974488;28;20195;-79